createdAt,value
2022-11-03T00:01:33.986Z,100885.09
2022-11-03T00:04:00.499Z,100876.84
2022-11-03T00:06:26.961Z,100881.94
2022-11-03T00:08:53.330Z,100886.88
2022-11-03T00:11:19.695Z,100873.78
2022-11-03T00:13:46.054Z,100877.63
2022-11-03T00:16:12.693Z,100880.94
2022-11-03T00:18:39.229Z,100882.06
2022-11-03T00:21:10.138Z,100887.56
2022-11-03T00:23:41.181Z,100879.91
2022-11-03T00:26:16.542Z,100887.56
2022-11-03T00:28:44.767Z,100887.31
2022-11-03T00:31:16.913Z,100880.44
2022-11-03T00:33:43.926Z,100883.03
2022-11-03T00:36:12.674Z,100876.19
2022-11-03T00:38:39.042Z,100876.97
2022-11-03T00:41:06.201Z,100875.38
2022-11-03T00:43:34.113Z,100878.31
2022-11-03T00:46:01.157Z,100874.16
2022-11-03T00:48:30.416Z,100870.31
2022-11-03T00:51:10.367Z,100869.06
2022-11-03T00:53:47.632Z,100871.19
2022-11-03T00:56:22.235Z,100867.38
2022-11-03T00:58:49.598Z,100870.94
2022-11-03T01:01:24.616Z,100864.91
2022-11-03T01:04:12.194Z,100863.19
2022-11-03T01:06:49.963Z,100860.84
2022-11-03T01:09:21.723Z,100858.91
2022-11-03T01:11:58.419Z,100860.16
2022-11-03T01:14:30.953Z,100851.84
2022-11-03T01:16:57.673Z,100849.72
2022-11-03T01:19:25.212Z,100854.78
2022-11-03T01:21:52.929Z,100847.25
2022-11-03T01:24:19.728Z,100838.47
2022-11-03T01:26:46.103Z,100845.78
2022-11-03T01:29:12.472Z,100840.50
2022-11-03T01:31:39.000Z,100836.19
2022-11-03T01:34:05.431Z,100833.97
2022-11-03T01:36:31.794Z,100839.69
2022-11-03T01:38:58.216Z,100837.75
2022-11-03T01:41:27.927Z,100824.22
2022-11-03T01:44:17.163Z,100817.38
2022-11-03T01:47:19.162Z,100815.47
2022-11-03T01:49:56.949Z,100811.38
2022-11-03T01:52:33.879Z,100809.81
2022-11-03T01:55:13.979Z,100806.44
2022-11-03T01:57:45.380Z,100804.75
2022-11-03T02:00:12.343Z,100791.56
2022-11-03T02:02:38.726Z,100794.94
2022-11-03T02:05:06.100Z,100788.41
2022-11-03T02:07:37.378Z,100781.19
2022-11-03T02:10:04.290Z,100768.19
2022-11-03T02:12:30.825Z,100765.84
2022-11-03T02:15:08.506Z,100766.53
2022-11-03T02:17:36.135Z,100763.38
2022-11-03T02:20:09.815Z,100761.00
2022-11-03T02:23:01.576Z,100754.50
2022-11-03T02:25:35.205Z,100755.38
2022-11-03T02:28:02.794Z,100748.97
2022-11-03T02:30:52.912Z,100744.25
2022-11-03T02:33:30.158Z,100734.66
2022-11-03T02:36:02.134Z,100727.44
2022-11-03T02:38:30.603Z,100732.84
2022-11-03T02:41:00.739Z,100729.16
2022-11-03T02:43:28.050Z,100721.50
2022-11-03T02:45:55.241Z,100723.06
2022-11-03T02:48:21.791Z,100723.34
2022-11-03T02:50:49.166Z,100714.50
2022-11-03T02:53:16.401Z,100717.84
2022-11-03T02:55:56.183Z,100706.34
2022-11-03T02:58:28.461Z,100698.94
2022-11-03T03:00:55.682Z,100709.97
2022-11-03T03:03:27.282Z,100699.03
2022-11-03T03:05:58.493Z,100698.66
2022-11-03T03:08:26.061Z,100695.56
2022-11-03T03:10:53.142Z,100700.75
2022-11-03T03:13:20.491Z,100692.25
2022-11-03T03:15:57.372Z,100688.78
2022-11-03T03:18:31.253Z,100684.06
2022-11-03T03:21:04.316Z,100680.75
2022-11-03T03:23:34.160Z,100675.28
2022-11-03T03:26:05.293Z,100676.59
2022-11-03T03:28:42.970Z,100678.19
2022-11-03T03:31:11.893Z,100680.41
2022-11-03T03:33:40.755Z,100675.41
2022-11-03T03:36:13.592Z,100666.66
2022-11-03T03:38:44.125Z,100671.09
2022-11-03T03:41:21.627Z,100672.19
2022-11-03T03:43:50.311Z,100671.69
2022-11-03T03:46:17.986Z,100664.13
2022-11-03T03:48:44.474Z,100667.47
2022-11-03T03:51:12.599Z,100664.69
2022-11-03T03:53:38.989Z,100661.22
2022-11-03T03:56:05.847Z,100650.41
2022-11-03T03:58:32.327Z,100656.81
2022-11-03T04:00:58.733Z,100650.34
2022-11-03T04:03:26.749Z,100643.47
2022-11-03T04:05:55.910Z,100632.88
2022-11-03T04:08:22.504Z,100629.19
2022-11-03T04:11:07.274Z,100638.22
2022-11-03T04:13:52.576Z,100634.78
2022-11-03T04:16:37.375Z,100632.66
2022-11-03T04:19:22.480Z,100624.97
2022-11-03T04:22:07.361Z,100635.19
2022-11-03T04:24:33.816Z,100621.03
2022-11-03T04:27:04.877Z,100617.31
2022-11-03T04:29:32.350Z,100622.50
2022-11-03T04:31:59.577Z,100612.50
2022-11-03T04:34:25.949Z,100610.50
2022-11-03T04:36:52.314Z,100608.22
2022-11-03T04:39:19.758Z,100612.72
2022-11-03T04:41:46.341Z,100604.38
2022-11-03T04:44:16.715Z,100607.63
2022-11-03T04:46:44.026Z,100600.59
2022-11-03T04:49:13.831Z,100610.22
2022-11-03T04:51:40.856Z,100600.25
2022-11-03T04:54:13.987Z,100594.81
2022-11-03T04:56:40.754Z,100596.84
2022-11-03T04:59:14.595Z,100593.06
2022-11-03T05:01:41.148Z,100591.06
2022-11-03T05:04:18.297Z,100587.06
2022-11-03T05:06:51.404Z,100596.50
2022-11-03T05:09:21.357Z,100585.56
2022-11-03T05:11:47.791Z,100589.38
2022-11-03T05:14:23.215Z,100590.47
2022-11-03T05:16:53.463Z,100578.22
2022-11-03T05:19:27.489Z,100576.94
2022-11-03T05:21:56.427Z,100579.16
2022-11-03T05:24:26.628Z,100574.56
2022-11-03T05:26:54.658Z,100566.56
2022-11-03T05:29:24.042Z,100572.13
2022-11-03T05:31:52.315Z,100565.16
2022-11-03T05:34:31.627Z,100561.75
2022-11-03T05:37:25.078Z,100567.28
2022-11-03T05:39:55.489Z,100557.38
2022-11-03T05:42:35.026Z,100546.91
2022-11-03T05:45:10.667Z,100554.72
2022-11-03T05:47:38.349Z,100538.16
2022-11-03T05:50:21.479Z,100525.69
2022-11-03T05:52:49.230Z,100529.94
2022-11-03T05:55:24.852Z,100533.56
2022-11-03T05:57:51.424Z,100525.22
2022-11-03T06:00:33.485Z,100532.75
2022-11-03T06:03:00.312Z,100534.44
2022-11-03T06:05:27.252Z,100522.03
2022-11-03T06:07:55.929Z,100525.56
2022-11-03T06:10:25.338Z,100518.09
2022-11-03T06:12:54.714Z,100509.63
2022-11-03T06:15:30.030Z,100517.50
2022-11-03T06:17:57.262Z,100507.91
2022-11-03T06:20:24.026Z,100512.47
2022-11-03T06:22:52.984Z,100509.72
2022-11-03T06:25:29.269Z,100512.22
2022-11-03T06:27:59.960Z,100508.09
2022-11-03T06:30:26.353Z,100502.25
2022-11-03T06:32:54.678Z,100501.75
2022-11-03T06:35:21.128Z,100503.31
2022-11-03T06:37:47.579Z,100500.72
2022-11-03T06:40:13.916Z,100499.28
2022-11-03T06:42:40.316Z,100492.75
2022-11-03T06:45:17.431Z,100492.78
2022-11-03T06:47:43.841Z,100494.56
2022-11-03T06:50:26.135Z,100484.59
2022-11-03T06:52:54.181Z,100483.56
2022-11-03T06:55:28.577Z,100479.41
2022-11-03T06:58:00.620Z,100471.78
2022-11-03T07:00:34.759Z,100477.25
2022-11-03T07:03:08.154Z,100471.88
2022-11-03T07:05:34.799Z,100458.03
2022-11-03T07:08:03.939Z,100455.72
2022-11-03T07:10:33.212Z,100451.63
2022-11-03T07:13:07.425Z,100452.50
2022-11-03T07:15:37.362Z,100445.13
2022-11-03T07:18:05.722Z,100441.72
2022-11-03T07:20:32.401Z,100438.91
2022-11-03T07:23:01.342Z,100441.13
2022-11-03T07:25:27.778Z,100431.84
2022-11-03T07:27:57.229Z,100422.13
2022-11-03T07:30:28.026Z,100425.72
2022-11-03T07:32:59.463Z,100419.13
2022-11-03T07:36:00.298Z,100427.88
2022-11-03T07:38:23.094Z,100415.19
2022-11-03T07:40:50.801Z,100410.00
2022-11-03T07:43:20.146Z,100412.38
2022-11-03T07:45:52.024Z,100401.41
2022-11-03T07:48:20.014Z,100396.22
2022-11-03T07:50:47.650Z,100402.34
2022-11-03T07:53:23.292Z,100386.63
2022-11-03T07:55:53.779Z,100383.25
2022-11-03T07:58:37.694Z,100386.66
2022-11-03T08:01:20.124Z,100391.31
2022-11-03T08:03:47.493Z,100398.38
2022-11-03T08:06:17.246Z,100392.69
2022-11-03T08:08:46.269Z,100385.69
2022-11-03T08:13:43.900Z,100374.94
2022-11-03T08:16:10.277Z,100360.13
2022-11-03T08:18:37.077Z,100360.41
2022-11-03T08:21:03.524Z,100352.22
2022-11-03T08:23:30.169Z,100353.94
2022-11-03T08:25:56.777Z,100355.34
2022-11-03T08:28:23.133Z,100351.03
2022-11-03T08:30:49.509Z,100346.84
2022-11-03T08:33:16.026Z,100345.41
2022-11-03T08:35:42.403Z,100341.22
2022-11-03T08:38:09.167Z,100344.66
2022-11-03T08:40:35.776Z,100336.97
2022-11-03T08:43:03.015Z,100335.25
2022-11-03T08:45:30.138Z,100326.22
2022-11-03T08:47:56.791Z,100323.97
2022-11-03T08:50:23.407Z,100313.22
2022-11-03T08:52:49.817Z,100317.84
2022-11-03T08:55:16.240Z,100326.00
2022-11-03T08:57:42.584Z,100323.22
2022-11-03T09:00:09.913Z,100323.22
2022-11-03T09:02:36.370Z,100306.03
2022-11-03T09:05:03.642Z,100305.72
2022-11-03T09:12:48.254Z,100302.47
2022-11-03T09:15:14.626Z,100298.50
2022-11-03T09:17:43.296Z,100296.59
2022-11-03T09:20:12.342Z,100279.78
2022-11-03T09:22:39.243Z,100284.91
2022-11-03T09:25:06.178Z,100273.72
2022-11-03T09:27:32.597Z,100273.44
2022-11-03T09:30:12.892Z,100265.97
2022-11-03T09:32:40.418Z,100259.94
2022-11-03T09:35:08.457Z,100271.28
2022-11-03T09:37:34.830Z,100257.09
2022-11-03T09:40:01.232Z,100251.50
2022-11-03T09:42:27.715Z,100252.41
2022-11-03T09:44:54.972Z,100243.44
2022-11-03T09:47:28.054Z,100237.84
2022-11-03T09:50:04.318Z,100224.88
2022-11-03T09:52:31.142Z,100217.56
2022-11-03T09:54:59.519Z,100210.16
2022-11-03T09:57:27.457Z,100199.03
2022-11-03T09:59:54.161Z,100185.88
2022-11-03T10:02:25.635Z,100186.88
2022-11-03T10:04:52.962Z,100183.16
2022-11-03T10:07:20.275Z,100170.56
2022-11-03T10:09:49.701Z,100181.22
2022-11-03T10:12:16.100Z,100174.47
2022-11-03T10:14:44.052Z,100165.53
2022-11-03T10:17:15.948Z,100161.78
2022-11-03T10:19:43.573Z,100177.38
2022-11-03T10:22:10.147Z,100163.78
2022-11-03T10:24:36.508Z,100163.59
2022-11-03T10:27:02.885Z,100157.13
2022-11-03T10:29:29.231Z,100149.91
2022-11-03T10:31:58.282Z,100147.59
2022-11-03T10:34:28.620Z,100145.88
2022-11-03T10:37:14.403Z,100142.28
2022-11-03T10:39:40.777Z,100131.09
2022-11-03T10:42:16.599Z,100119.50
2022-11-03T10:44:42.948Z,100110.69
2022-11-03T10:47:22.498Z,100092.56
2022-11-03T10:49:48.914Z,100076.22
2022-11-03T10:52:22.791Z,100077.16
2022-11-03T10:54:54.244Z,100066.78
2022-11-03T10:57:22.052Z,100057.00
2022-11-03T10:59:50.277Z,100065.88
2022-11-03T11:02:24.845Z,100053.63
2022-11-03T11:04:59.207Z,100058.22
2022-11-03T11:07:33.012Z,100050.69
2022-11-03T11:10:06.710Z,100058.66
2022-11-03T11:12:33.061Z,100052.66
2022-11-03T11:15:01.460Z,100047.44
2022-11-03T11:17:36.973Z,100040.88
2022-11-03T11:20:18.808Z,100035.25
2022-11-03T11:22:45.785Z,100026.69
2022-11-03T11:25:12.208Z,100019.44
2022-11-03T11:27:38.475Z,100010.78
2022-11-03T11:30:07.365Z,100000.84
2022-11-03T11:32:36.738Z,99991.84
2022-11-03T11:35:03.242Z,99989.31
2022-11-03T11:37:29.509Z,99985.91
2022-11-03T11:39:55.881Z,99977.19
2022-11-03T11:42:22.370Z,99985.41
2022-11-03T11:44:53.881Z,99978.66
2022-11-03T11:47:26.028Z,99970.13
2022-11-03T11:50:07.610Z,99960.97
2022-11-03T11:52:36.650Z,99938.78
2022-11-03T11:55:03.849Z,99931.91
2022-11-03T11:57:34.198Z,99937.66
2022-11-03T12:00:00.690Z,99932.66
2022-11-03T12:02:29.782Z,99938.31
2022-11-03T12:05:02.889Z,99937.44
2022-11-03T12:07:33.540Z,99933.06
2022-11-03T12:10:09.695Z,99926.38
2022-11-03T12:12:36.246Z,99914.25
2022-11-03T12:15:02.618Z,99907.84
2022-11-03T12:17:28.876Z,99905.13
2022-11-03T12:19:55.553Z,99904.38
2022-11-03T12:22:24.883Z,99895.81
2022-11-03T12:25:15.531Z,99905.34
2022-11-03T12:27:43.045Z,99907.03
2022-11-03T12:30:18.639Z,99904.81
2022-11-03T12:32:46.086Z,99895.19
2022-11-03T12:35:13.613Z,99892.34
2022-11-03T12:37:40.903Z,99884.13
2022-11-03T12:40:07.864Z,99856.25
2022-11-03T12:42:35.025Z,99844.22
2022-11-03T12:45:01.460Z,99833.41
2022-11-03T12:47:27.883Z,99836.63
2022-11-03T12:49:54.311Z,99836.22
2022-11-03T12:52:20.683Z,99833.91
2022-11-03T12:54:47.047Z,99831.91
2022-11-03T12:57:13.859Z,99821.28
2022-11-03T12:59:40.558Z,99816.06
2022-11-03T13:02:08.772Z,99800.75
2022-11-03T13:04:35.262Z,99785.41
2022-11-03T13:07:01.644Z,99790.41
2022-11-03T13:09:27.994Z,99783.69
2022-11-03T13:12:12.892Z,99779.59
2022-11-03T13:14:42.039Z,99764.03
2022-11-03T13:17:10.722Z,99750.00
2022-11-03T13:19:37.146Z,99759.25
2022-11-03T13:22:03.632Z,99758.63
2022-11-03T13:24:29.997Z,99753.59
2022-11-03T13:26:56.349Z,99744.00
2022-11-03T13:29:22.750Z,99736.00
2022-11-03T13:31:49.121Z,99721.38
2022-11-03T13:34:15.530Z,99721.28
2022-11-03T13:36:41.946Z,99707.59
2022-11-03T13:39:08.304Z,99705.25
2022-11-03T13:41:34.661Z,99711.59
2022-11-03T13:44:01.015Z,99710.84
2022-11-03T13:46:27.396Z,99704.63
2022-11-03T13:49:51.111Z,99690.19
2022-11-03T13:51:40.444Z,99683.59
2022-11-03T13:59:39.791Z,99679.28
2022-11-03T14:04:53.227Z,99670.56
2022-11-03T14:07:19.620Z,99666.19
2022-11-03T14:09:46.047Z,99655.28
2022-11-03T14:12:30.676Z,99650.09
2022-11-03T14:15:06.140Z,99646.28
2022-11-03T14:17:32.959Z,99635.84
2022-11-03T14:20:04.251Z,99638.50
2022-11-03T14:22:31.431Z,99631.09
2022-11-03T14:24:57.880Z,99629.25
2022-11-03T14:27:24.274Z,99620.19
2022-11-03T14:29:50.769Z,99604.63
2022-11-03T14:32:18.054Z,99604.25
2022-11-03T14:34:44.573Z,99585.09
2022-11-03T14:37:11.624Z,99573.41
2022-11-03T14:39:38.260Z,99565.47
2022-11-03T14:42:15.826Z,99556.38
2022-11-03T14:44:43.607Z,99561.31
2022-11-03T14:48:04.992Z,99559.44
2022-11-03T14:50:31.537Z,99559.03
2022-11-03T14:52:59.957Z,99563.28
2022-11-03T14:55:26.644Z,99574.44
2022-11-03T14:57:53.006Z,99567.94
2022-11-03T15:00:20.201Z,99553.34
2022-11-03T15:02:46.550Z,99540.13
2022-11-03T15:05:32.867Z,99544.97
2022-11-03T15:07:59.225Z,99535.59
2022-11-03T15:10:25.679Z,99527.66
2022-11-03T15:12:52.139Z,99517.97
2022-11-03T15:15:18.534Z,99522.88
2022-11-03T15:17:44.975Z,99521.63
2022-11-03T15:20:11.485Z,99513.09
2022-11-03T15:25:28.871Z,99512.44
2022-11-03T15:28:00.284Z,99515.09
2022-11-03T15:30:26.855Z,99524.56
2022-11-03T15:32:53.298Z,99524.38
2022-11-03T15:35:19.763Z,99531.38
2022-11-03T15:37:46.254Z,99533.34
2022-11-03T15:40:13.855Z,99527.69
2022-11-03T15:42:40.473Z,99527.69
2022-11-03T15:45:12.663Z,99512.97
2022-11-03T15:47:39.121Z,99503.41
2022-11-03T15:50:06.724Z,99502.66
2022-11-03T15:52:33.135Z,99506.69
2022-11-03T15:54:59.591Z,99497.16
2022-11-03T15:57:26.363Z,99508.06
2022-11-03T15:59:55.345Z,99502.94
2022-11-03T16:05:10.680Z,99497.22
2022-11-03T16:07:37.028Z,99498.06
2022-11-03T16:10:03.685Z,99488.84
2022-11-03T16:12:30.203Z,99487.22
2022-11-03T16:14:56.974Z,99479.03
2022-11-03T16:17:23.470Z,99492.97
2022-11-03T16:19:50.304Z,99484.06
2022-11-03T16:22:16.718Z,99467.28
2022-11-03T16:24:46.289Z,99469.19
2022-11-03T16:27:12.810Z,99476.44
2022-11-03T16:29:39.157Z,99466.53
2022-11-03T16:32:05.603Z,99481.84
2022-11-03T16:34:32.024Z,99468.16
2022-11-03T16:36:58.778Z,99468.72
2022-11-03T16:39:25.156Z,99468.38
2022-11-03T16:41:54.696Z,99456.88
2022-11-03T16:44:21.483Z,99462.63
2022-11-03T16:46:47.926Z,99454.28
2022-11-03T16:49:14.341Z,99449.84
2022-11-03T16:51:40.700Z,99441.78
2022-11-03T16:54:07.466Z,99440.41
2022-11-03T16:56:33.912Z,99440.69
2022-11-03T16:59:00.321Z,99442.41
2022-11-03T17:01:27.433Z,99441.38
2022-11-03T17:03:53.993Z,99437.84
2022-11-03T17:06:20.440Z,99459.91
2022-11-03T17:08:52.937Z,99448.59
2022-11-03T17:11:38.075Z,99451.56
2022-11-03T17:14:05.736Z,99456.97
2022-11-03T17:16:32.218Z,99448.72
2022-11-03T17:18:58.581Z,99447.00
2022-11-03T17:21:25.997Z,99440.75
2022-11-03T17:23:52.746Z,99440.81
2022-11-03T17:26:24.041Z,99438.81
2022-11-03T17:28:50.429Z,99436.41
2022-11-03T17:31:16.849Z,99419.75
2022-11-03T17:33:43.342Z,99418.88
2022-11-03T17:36:10.153Z,99420.38
2022-11-03T17:38:38.439Z,99421.66
2022-11-03T17:41:04.864Z,99416.78
2022-11-03T17:43:31.278Z,99402.69
2022-11-03T17:45:57.649Z,99405.97
2022-11-03T17:48:24.216Z,99402.22
2022-11-03T17:50:53.467Z,99398.72
2022-11-03T17:53:24.520Z,99391.56
2022-11-03T17:56:08.747Z,99394.34
2022-11-03T17:58:44.802Z,99382.47
2022-11-03T18:01:12.764Z,99381.13
2022-11-03T18:03:40.517Z,99368.69
2022-11-03T18:06:15.464Z,99368.53
2022-11-03T18:08:41.881Z,99360.50
2022-11-03T18:11:09.086Z,99362.34
2022-11-03T18:13:35.507Z,99362.41
2022-11-03T18:16:10.631Z,99353.25
2022-11-03T18:18:43.414Z,99351.75
2022-11-03T18:21:14.292Z,99345.94
2022-11-03T18:23:40.678Z,99349.28
2022-11-03T18:26:16.380Z,99342.59
2022-11-03T18:28:42.751Z,99340.97
2022-11-03T18:31:18.973Z,99332.63
2022-11-03T18:33:45.825Z,99337.69
2022-11-03T18:36:14.534Z,99331.41
2022-11-03T18:38:42.467Z,99336.72
2022-11-03T18:41:33.945Z,99334.28
2022-11-03T18:44:00.799Z,99330.56
2022-11-03T18:46:27.176Z,99332.44
2022-11-03T18:48:53.594Z,99325.13
2022-11-03T18:51:20.171Z,99315.63
2022-11-03T18:53:46.638Z,99315.00
2022-11-03T18:56:13.420Z,99313.03
2022-11-03T18:58:39.932Z,99313.78
2022-11-03T19:01:07.101Z,99313.03
2022-11-03T19:03:34.581Z,99301.44
2022-11-03T19:06:01.028Z,99292.78
2022-11-03T19:08:32.061Z,99298.91
2022-11-03T19:11:03.547Z,99293.47
2022-11-03T19:13:34.610Z,99297.28
2022-11-03T19:16:02.970Z,99304.09
2022-11-03T19:18:33.510Z,99300.56
2022-11-03T19:20:59.875Z,99302.75
2022-11-03T19:23:26.271Z,99304.03
2022-11-03T19:25:57.741Z,99293.03
2022-11-03T19:28:24.880Z,99295.38
2022-11-03T19:30:56.876Z,99301.56
2022-11-03T19:33:25.599Z,99295.00
2022-11-03T19:35:52.042Z,99299.94
2022-11-03T19:38:19.021Z,99291.53
2022-11-03T19:41:04.755Z,99297.66
2022-11-03T19:43:34.619Z,99290.31
2022-11-03T19:46:01.521Z,99287.84
2022-11-03T19:48:31.907Z,99291.19
2022-11-03T19:50:58.604Z,99291.81
2022-11-03T19:53:27.528Z,99282.69
2022-11-03T19:55:54.255Z,99280.16
2022-11-03T19:58:23.325Z,99278.31
2022-11-03T20:00:50.492Z,99271.38
2022-11-03T20:03:17.229Z,99275.41
2022-11-03T20:05:49.055Z,99269.53
2022-11-03T20:08:19.077Z,99273.22
2022-11-03T20:10:47.542Z,99258.78
2022-11-03T20:13:15.920Z,99268.78
2022-11-03T20:15:42.330Z,99270.88
2022-11-03T20:18:11.885Z,99269.94
2022-11-03T20:20:38.792Z,99265.34
2022-11-03T20:23:06.669Z,99268.97
2022-11-03T20:25:35.012Z,99261.88
2022-11-03T20:28:27.411Z,99264.66
2022-11-03T20:30:54.775Z,99268.16
2022-11-03T20:33:22.981Z,99263.03
2022-11-03T20:35:50.725Z,99266.56
2022-11-03T20:38:21.613Z,99265.69
2022-11-03T20:40:49.303Z,99262.75
2022-11-03T20:43:22.297Z,99256.13
2022-11-03T20:45:48.836Z,99254.38
2022-11-03T20:48:15.368Z,99254.59
2022-11-03T20:50:41.742Z,99255.25
2022-11-03T20:53:16.370Z,99250.16
2022-11-03T20:55:42.960Z,99252.75
2022-11-03T20:58:11.970Z,99253.28
2022-11-03T21:00:39.045Z,99248.78
2022-11-03T21:06:16.550Z,99241.56
2022-11-03T21:08:43.685Z,99241.44
2022-11-03T21:11:24.051Z,99242.78
2022-11-03T21:14:01.582Z,99246.44
2022-11-03T21:16:48.524Z,99241.25
2022-11-03T21:19:35.650Z,99246.75
2022-11-03T21:22:02.172Z,99236.09
2022-11-03T21:24:28.565Z,99244.22
2022-11-03T21:26:54.952Z,99234.88
2022-11-03T21:29:33.154Z,99245.94
2022-11-03T21:32:10.548Z,99239.41
2022-11-03T21:34:36.966Z,99241.06
2022-11-03T21:37:03.741Z,99242.44
2022-11-03T21:39:30.511Z,99249.81
2022-11-03T21:42:16.116Z,99258.41
2022-11-03T21:44:42.951Z,99253.22
2022-11-03T21:47:11.114Z,99255.47
2022-11-03T21:49:43.234Z,99257.25
2022-11-03T21:52:11.608Z,99261.16
2022-11-03T21:54:41.751Z,99259.03
2022-11-03T21:57:10.374Z,99247.38
2022-11-03T21:59:36.775Z,99252.63
2022-11-03T22:02:04.525Z,99248.59
2022-11-03T22:04:31.134Z,99250.03
2022-11-03T22:06:58.447Z,99246.69
2022-11-03T22:09:26.121Z,99257.00
2022-11-03T22:11:53.195Z,99248.59
2022-11-03T22:14:20.198Z,99249.47
2022-11-03T22:16:47.160Z,99243.16
2022-11-03T22:19:37.758Z,99252.34
2022-11-03T22:22:30.543Z,99245.81
2022-11-03T22:25:15.450Z,99246.19
2022-11-03T22:27:41.998Z,99251.88
2022-11-03T22:30:27.460Z,99261.38
2022-11-03T22:32:55.349Z,99265.66
2022-11-03T22:35:41.106Z,99278.63
2022-11-03T22:38:17.823Z,99268.72
2022-11-03T22:41:05.265Z,99272.00
2022-11-03T22:43:50.406Z,99255.56
2022-11-03T22:46:17.462Z,99254.53
2022-11-03T22:48:44.199Z,99254.53
2022-11-03T22:51:15.610Z,99263.97
2022-11-03T22:54:01.132Z,99273.84
2022-11-03T22:56:29.182Z,99286.06
2022-11-03T22:58:55.929Z,99279.31
2022-11-03T23:01:24.431Z,99272.78
2022-11-03T23:03:50.930Z,99278.41
2022-11-03T23:06:19.652Z,99278.28
2022-11-03T23:08:47.281Z,99267.25
2022-11-03T23:11:20.927Z,99278.28
2022-11-03T23:13:52.799Z,99275.16
2022-11-03T23:16:21.587Z,99275.75
2022-11-03T23:19:07.166Z,99287.00
2022-11-03T23:21:34.129Z,99281.09
2022-11-03T23:24:19.606Z,99289.59
2022-11-03T23:26:46.094Z,99285.81
2022-11-03T23:29:13.404Z,99277.63
2022-11-03T23:31:40.828Z,99277.31
2022-11-03T23:34:07.982Z,99260.94
2022-11-03T23:36:34.481Z,99276.13
2022-11-03T23:39:01.283Z,99282.00
2022-11-03T23:41:28.201Z,99292.06
2022-11-03T23:43:55.001Z,99310.81
2022-11-03T23:46:42.593Z,99318.22
2022-11-03T23:49:08.993Z,99347.53
2022-11-03T23:51:36.350Z,99384.00
2022-11-03T23:54:04.030Z,99366.91
2022-11-03T23:56:53.099Z,99388.63
2022-11-03T23:59:19.554Z,99379.34
